createdAt,value
2018-10-11T00:00:11.122Z,996.52
2018-10-11T00:01:11.147Z,996.53
2018-10-11T00:02:11.175Z,996.50
2018-10-11T00:03:11.183Z,996.57
2018-10-11T00:04:11.199Z,996.47
2018-10-11T00:05:11.217Z,996.49
2018-10-11T00:06:11.237Z,996.51
2018-10-11T00:07:11.251Z,996.57
2018-10-11T00:08:11.263Z,996.66
2018-10-11T00:09:11.286Z,996.57
2018-10-11T00:10:11.304Z,996.61
2018-10-11T00:11:11.388Z,996.60
2018-10-11T00:12:11.333Z,996.64
2018-10-11T00:13:11.351Z,996.60
2018-10-11T00:14:11.378Z,996.57
2018-10-11T00:15:11.392Z,996.60
2018-10-11T00:16:11.406Z,996.65
2018-10-11T00:17:11.463Z,996.67
2018-10-11T00:18:11.441Z,996.67
2018-10-11T00:19:11.458Z,996.65
2018-10-11T00:20:11.475Z,996.63
2018-10-11T00:21:11.489Z,996.61
2018-10-11T00:22:11.513Z,996.73
2018-10-11T00:23:11.530Z,996.69
2018-10-11T00:24:11.548Z,996.73
2018-10-11T00:25:11.566Z,996.74
2018-10-11T00:26:11.582Z,996.68
2018-10-11T00:27:11.598Z,996.71
2018-10-11T00:28:11.629Z,996.73
2018-10-11T00:29:11.642Z,996.73
2018-10-11T00:30:11.654Z,996.74
2018-10-11T00:31:11.674Z,996.75
2018-10-11T00:32:11.698Z,996.81
2018-10-11T00:33:11.702Z,996.74
2018-10-11T00:34:11.712Z,996.74
2018-10-11T00:35:11.737Z,996.76
2018-10-11T00:36:11.818Z,996.77
2018-10-11T00:37:11.766Z,996.72
2018-10-11T00:38:11.786Z,996.71
2018-10-11T00:39:11.800Z,996.68
2018-10-11T00:40:11.816Z,996.67
2018-10-11T00:41:11.842Z,996.67
2018-10-11T00:42:11.922Z,996.64
2018-10-11T00:43:11.874Z,996.63
2018-10-11T00:44:11.884Z,996.64
2018-10-11T00:45:11.908Z,996.64
2018-10-11T00:46:11.920Z,996.66
2018-10-11T00:47:11.940Z,996.61
2018-10-11T00:48:11.961Z,996.67
2018-10-11T00:49:11.975Z,996.69
2018-10-11T00:50:11.999Z,996.61
2018-10-11T00:51:12.008Z,996.66
2018-10-11T00:52:12.021Z,996.65
2018-10-11T00:53:12.044Z,996.69
2018-10-11T00:54:12.062Z,996.57
2018-10-11T00:55:12.124Z,996.58
2018-10-11T00:56:12.098Z,996.57
2018-10-11T00:57:12.111Z,996.66
2018-10-11T00:58:12.135Z,996.57
2018-10-11T00:59:12.144Z,996.69
2018-10-11T01:00:12.160Z,996.63
2018-10-11T01:01:12.199Z,996.73
2018-10-11T01:02:12.197Z,996.74
2018-10-11T01:03:12.214Z,996.68
2018-10-11T01:04:12.235Z,996.74
2018-10-11T01:05:12.248Z,996.70
2018-10-11T01:06:12.267Z,996.69
2018-10-11T01:07:12.295Z,996.78
2018-10-11T01:08:12.296Z,996.76
2018-10-11T01:09:12.362Z,996.79
2018-10-11T01:10:12.339Z,996.79
2018-10-11T01:11:12.349Z,996.81
2018-10-11T01:12:12.375Z,996.90
2018-10-11T01:13:12.391Z,996.88
2018-10-11T01:14:12.404Z,996.81
2018-10-11T01:15:12.426Z,996.84
2018-10-11T01:16:12.439Z,996.87
2018-10-11T01:17:12.462Z,996.87
2018-10-11T01:18:12.471Z,996.88
2018-10-11T01:19:12.488Z,996.83
2018-10-11T01:20:12.511Z,996.80
2018-10-11T01:21:12.525Z,996.78
2018-10-11T01:22:12.544Z,996.74
2018-10-11T01:23:12.564Z,996.77
2018-10-11T01:24:12.581Z,996.73
2018-10-11T01:25:12.593Z,996.80
2018-10-11T01:26:12.619Z,996.70
2018-10-11T01:27:12.640Z,996.77
2018-10-11T01:28:12.653Z,996.70
2018-10-11T01:29:12.668Z,996.69
2018-10-11T01:30:12.779Z,996.70
2018-10-11T01:31:12.742Z,996.78
2018-10-11T01:32:12.719Z,996.80
2018-10-11T01:33:12.728Z,996.91
2018-10-11T01:34:12.757Z,996.93
2018-10-11T01:35:12.768Z,996.90
2018-10-11T01:36:12.789Z,996.96
2018-10-11T01:37:12.873Z,996.91
2018-10-11T01:38:12.823Z,996.97
2018-10-11T01:39:12.840Z,996.97
2018-10-11T01:40:12.858Z,996.91
2018-10-11T01:41:12.877Z,996.98
2018-10-11T01:42:12.892Z,996.86
2018-10-11T01:43:12.964Z,996.92
2018-10-11T01:44:12.929Z,996.97
2018-10-11T01:45:12.946Z,996.93
2018-10-11T01:46:12.965Z,996.91
2018-10-11T01:47:12.980Z,996.99
2018-10-11T01:48:13.000Z,996.97
2018-10-11T01:49:13.026Z,997.04
2018-10-11T01:50:13.036Z,996.96
2018-10-11T01:51:13.046Z,996.97
2018-10-11T01:52:13.070Z,997.05
2018-10-11T01:53:13.079Z,997.03
2018-10-11T01:54:13.101Z,996.89
2018-10-11T01:55:13.184Z,996.98
2018-10-11T01:56:13.134Z,996.95
2018-10-11T01:57:13.153Z,997.10
2018-10-11T01:58:13.165Z,997.01
2018-10-11T01:59:13.178Z,996.96
2018-10-11T02:00:13.213Z,996.93
2018-10-11T02:01:13.231Z,996.89
2018-10-11T02:02:13.237Z,996.87
2018-10-11T02:03:13.259Z,996.96
2018-10-11T02:04:13.269Z,996.78
2018-10-11T02:05:13.284Z,996.89
2018-10-11T02:06:13.305Z,996.77
2018-10-11T02:07:13.403Z,996.66
2018-10-11T02:08:13.335Z,996.74
2018-10-11T02:09:13.361Z,996.77
2018-10-11T02:10:13.374Z,996.83
2018-10-11T02:11:13.396Z,996.73
2018-10-11T02:12:13.409Z,996.74
2018-10-11T02:13:13.504Z,996.77
2018-10-11T02:14:13.451Z,996.67
2018-10-11T02:15:13.461Z,996.65
2018-10-11T02:16:13.477Z,996.51
2018-10-11T02:17:13.496Z,996.45
2018-10-11T02:18:13.511Z,996.52
2018-10-11T02:19:13.621Z,996.49
2018-10-11T02:20:13.547Z,996.50
2018-10-11T02:21:13.563Z,996.46
2018-10-11T02:22:13.571Z,996.42
2018-10-11T02:23:13.592Z,996.35
2018-10-11T02:24:13.611Z,996.37
2018-10-11T02:25:13.637Z,996.41
2018-10-11T02:26:13.650Z,996.36
2018-10-11T02:27:13.665Z,996.34
2018-10-11T02:28:13.696Z,996.26
2018-10-11T02:29:13.696Z,996.29
2018-10-11T02:30:13.739Z,996.21
2018-10-11T02:31:13.774Z,996.10
2018-10-11T02:32:13.884Z,995.99
2018-10-11T02:33:13.770Z,995.98
2018-10-11T02:34:13.791Z,995.90
2018-10-11T02:35:13.801Z,995.95
2018-10-11T02:36:13.827Z,995.99
2018-10-11T02:37:13.897Z,996.09
2018-10-11T02:38:13.886Z,995.96
2018-10-11T02:39:13.883Z,996.11
2018-10-11T02:40:13.950Z,995.97
2018-10-11T02:41:13.951Z,996.05
2018-10-11T02:42:13.945Z,995.97
2018-10-11T02:43:13.951Z,995.99
2018-10-11T02:44:13.963Z,996.05
2018-10-11T02:45:13.976Z,995.94
2018-10-11T02:46:13.995Z,995.68
2018-10-11T02:47:14.021Z,995.54
2018-10-11T02:48:14.026Z,995.65
2018-10-11T02:49:14.037Z,995.89
2018-10-11T02:50:14.113Z,996.02
2018-10-11T02:51:14.082Z,996.09
2018-10-11T02:52:14.103Z,996.24
2018-10-11T02:53:14.112Z,996.28
2018-10-11T02:54:14.133Z,996.21
2018-10-11T02:55:14.140Z,996.26
2018-10-11T02:56:14.162Z,996.28
2018-10-11T02:57:14.184Z,996.33
2018-10-11T02:58:14.193Z,996.34
2018-10-11T02:59:14.218Z,996.36
2018-10-11T03:00:14.236Z,996.42
2018-10-11T03:01:14.250Z,996.35
2018-10-11T03:02:14.272Z,996.40
2018-10-11T03:03:22.008Z,996.42
2018-10-11T03:04:14.307Z,996.40
2018-10-11T03:05:14.324Z,996.43
2018-10-11T03:06:14.341Z,996.35
2018-10-11T03:07:14.356Z,996.31
2018-10-11T03:08:14.370Z,996.38
2018-10-11T03:09:14.481Z,996.33
2018-10-11T03:10:14.402Z,996.36
2018-10-11T03:11:14.430Z,996.30
2018-10-11T03:12:14.438Z,996.33
2018-10-11T03:13:14.483Z,996.34
2018-10-11T03:14:14.481Z,996.29
2018-10-11T03:15:14.488Z,996.31
2018-10-11T03:16:14.509Z,996.28
2018-10-11T03:17:14.525Z,996.26
2018-10-11T03:18:14.543Z,996.31
2018-10-11T03:19:14.564Z,996.25
2018-10-11T03:20:14.575Z,996.29
2018-10-11T03:21:14.602Z,996.34
2018-10-11T03:22:14.617Z,996.34
2018-10-11T03:23:14.627Z,996.50
2018-10-11T03:24:14.683Z,996.40
2018-10-11T03:25:14.668Z,996.43
2018-10-11T03:26:14.689Z,996.42
2018-10-11T03:27:14.704Z,996.37
2018-10-11T03:28:14.715Z,996.41
2018-10-11T03:29:14.725Z,996.58
2018-10-11T03:30:14.752Z,996.67
2018-10-11T03:31:14.764Z,996.82
2018-10-11T03:32:14.785Z,996.84
2018-10-11T03:33:14.887Z,996.96
2018-10-11T03:34:14.818Z,996.93
2018-10-11T03:35:14.832Z,996.90
2018-10-11T03:36:14.858Z,996.90
2018-10-11T03:37:14.864Z,996.94
2018-10-11T03:38:14.886Z,996.94
2018-10-11T03:39:14.955Z,996.73
2018-10-11T03:40:14.922Z,996.59
2018-10-11T03:41:14.948Z,996.53
2018-10-11T03:42:14.961Z,996.38
2018-10-11T03:43:14.980Z,996.41
2018-10-11T03:44:14.995Z,996.37
2018-10-11T03:45:15.007Z,996.40
2018-10-11T03:46:15.020Z,996.38
2018-10-11T03:47:15.043Z,996.46
2018-10-11T03:48:15.068Z,996.40
2018-10-11T03:49:15.072Z,996.48
2018-10-11T03:50:15.092Z,996.45
2018-10-11T03:51:15.140Z,996.51
2018-10-11T03:52:15.132Z,996.63
2018-10-11T03:53:15.148Z,996.71
2018-10-11T03:54:15.168Z,996.68
2018-10-11T03:55:15.182Z,996.72
2018-10-11T03:56:15.196Z,996.70
2018-10-11T03:57:15.213Z,996.79
2018-10-11T03:58:15.240Z,996.86
2018-10-11T03:59:15.252Z,996.99
2018-10-11T04:00:15.262Z,996.92
2018-10-11T04:01:15.286Z,996.92
2018-10-11T04:02:15.298Z,996.88
2018-10-11T04:03:15.320Z,996.85
2018-10-11T04:04:15.340Z,996.83
2018-10-11T04:05:15.356Z,996.81
2018-10-11T04:06:15.369Z,996.77
2018-10-11T04:07:15.394Z,996.86
2018-10-11T04:08:15.406Z,996.85
2018-10-11T04:09:15.494Z,996.85
2018-10-11T04:10:15.447Z,996.82
2018-10-11T04:11:15.461Z,996.76
2018-10-11T04:12:15.469Z,996.71
2018-10-11T04:13:15.487Z,996.68
2018-10-11T04:14:15.509Z,996.72
2018-10-11T04:15:15.530Z,996.80
2018-10-11T04:16:15.543Z,996.83
2018-10-11T04:17:15.562Z,996.78
2018-10-11T04:18:15.570Z,996.77
2018-10-11T04:19:15.592Z,996.74
2018-10-11T04:20:15.606Z,996.78
2018-10-11T04:21:15.621Z,996.77
2018-10-11T04:22:15.644Z,996.74
2018-10-11T04:23:15.660Z,996.74
2018-10-11T04:24:15.683Z,996.79
2018-10-11T04:25:15.695Z,996.86
2018-10-11T04:26:15.710Z,996.88
2018-10-11T04:27:15.734Z,996.91
2018-10-11T04:28:15.749Z,996.75
2018-10-11T04:29:15.769Z,996.66
2018-10-11T04:30:15.785Z,996.66
2018-10-11T04:31:15.798Z,996.53
2018-10-11T04:32:15.817Z,996.58
2018-10-11T04:33:15.845Z,996.61
2018-10-11T04:34:15.851Z,996.57
2018-10-11T04:35:15.874Z,996.50
2018-10-11T04:36:15.954Z,996.57
2018-10-11T04:37:15.904Z,996.52
2018-10-11T04:38:15.922Z,996.57
2018-10-11T04:39:15.948Z,996.66
2018-10-11T04:40:15.954Z,996.67
2018-10-11T04:41:15.963Z,996.77
2018-10-11T04:42:15.990Z,996.81
2018-10-11T04:43:16.198Z,996.79
2018-10-11T04:44:16.022Z,996.85
2018-10-11T04:45:16.046Z,996.92
2018-10-11T04:46:16.060Z,996.86
2018-10-11T04:47:16.076Z,996.86
2018-10-11T04:48:16.094Z,996.92
2018-10-11T04:49:16.116Z,996.90
2018-10-11T04:50:16.127Z,996.95
2018-10-11T04:51:16.145Z,996.98
2018-10-11T04:52:16.156Z,997.06
2018-10-11T04:53:16.175Z,997.02
2018-10-11T04:54:16.193Z,997.05
2018-10-11T04:55:16.216Z,997.09
2018-10-11T04:56:16.230Z,997.07
2018-10-11T04:57:16.249Z,997.07
2018-10-11T04:58:16.266Z,997.12
2018-10-11T04:59:16.276Z,997.09
2018-10-11T05:00:16.308Z,997.11
2018-10-11T05:01:16.316Z,997.12
2018-10-11T05:02:16.332Z,997.07
2018-10-11T05:03:16.345Z,997.06
2018-10-11T05:04:16.401Z,997.11
2018-10-11T05:05:16.433Z,997.09
2018-10-11T05:06:16.398Z,997.07
2018-10-11T05:07:16.416Z,997.11
2018-10-11T05:08:16.435Z,997.08
2018-10-11T05:09:16.457Z,997.08
2018-10-11T05:10:16.507Z,997.01
2018-10-11T05:11:16.487Z,997.00
2018-10-11T05:12:16.504Z,997.00
2018-10-11T05:13:16.521Z,997.00
2018-10-11T05:14:16.537Z,997.02
2018-10-11T05:15:16.557Z,997.05
2018-10-11T05:16:16.579Z,997.00
2018-10-11T05:17:16.657Z,997.01
2018-10-11T05:18:16.612Z,996.97
2018-10-11T05:19:16.625Z,997.06
2018-10-11T05:20:16.642Z,997.04
2018-10-11T05:21:16.671Z,997.09
2018-10-11T05:22:16.677Z,997.11
2018-10-11T05:23:16.764Z,997.13
2018-10-11T05:24:16.713Z,997.17
2018-10-11T05:25:16.729Z,997.17
2018-10-11T05:26:16.864Z,997.13
2018-10-11T05:27:16.766Z,997.09
2018-10-11T05:28:16.776Z,997.19
2018-10-11T05:29:16.832Z,997.24
2018-10-11T05:30:16.816Z,997.22
2018-10-11T05:31:16.832Z,997.22
2018-10-11T05:32:16.869Z,997.24
2018-10-11T05:33:16.866Z,997.24
2018-10-11T05:34:16.886Z,997.20
2018-10-11T05:35:16.912Z,997.29
2018-10-11T05:36:16.921Z,997.29
2018-10-11T05:37:16.936Z,997.26
2018-10-11T05:38:17.111Z,997.21
2018-10-11T05:39:16.972Z,997.23
2018-10-11T05:40:16.987Z,997.19
2018-10-11T05:41:17.079Z,997.17
2018-10-11T05:42:17.036Z,997.20
2018-10-11T05:43:17.045Z,997.24
2018-10-11T05:44:17.107Z,997.21
2018-10-11T05:45:17.079Z,997.18
2018-10-11T05:46:17.091Z,997.19
2018-10-11T05:47:17.169Z,997.16
2018-10-11T05:48:17.122Z,997.14
2018-10-11T05:49:17.145Z,997.22
2018-10-11T05:50:17.211Z,997.17
2018-10-11T05:51:17.181Z,997.18
2018-10-11T05:52:17.191Z,997.14
2018-10-11T05:53:17.215Z,997.11
2018-10-11T05:54:17.230Z,997.10
2018-10-11T05:55:17.243Z,997.13
2018-10-11T05:56:17.260Z,997.12
2018-10-11T05:57:17.286Z,997.08
2018-10-11T05:58:17.292Z,997.09
2018-10-11T05:59:17.335Z,997.14
2018-10-11T06:00:17.327Z,997.14
2018-10-11T06:01:17.344Z,997.14
2018-10-11T06:02:17.366Z,997.18
2018-10-11T06:03:17.388Z,997.22
2018-10-11T06:04:17.489Z,997.24
2018-10-11T06:05:17.456Z,997.19
2018-10-11T06:06:17.437Z,997.28
2018-10-11T06:07:17.449Z,997.27
2018-10-11T06:08:17.474Z,997.24
2018-10-11T06:09:17.485Z,997.20
2018-10-11T06:10:17.503Z,997.22
2018-10-11T06:11:17.517Z,997.24
2018-10-11T06:12:17.543Z,997.23
2018-10-11T06:13:17.552Z,997.29
2018-10-11T06:14:17.575Z,997.29
2018-10-11T06:15:17.593Z,997.27
2018-10-11T06:16:17.613Z,997.18
2018-10-11T06:17:17.631Z,997.28
2018-10-11T06:18:17.701Z,997.24
2018-10-11T06:19:17.659Z,997.24
2018-10-11T06:20:17.680Z,997.22
2018-10-11T06:21:17.695Z,997.29
2018-10-11T06:22:17.712Z,997.26
2018-10-11T06:23:17.732Z,997.29
2018-10-11T06:24:17.747Z,997.27
2018-10-11T06:25:17.768Z,997.34
2018-10-11T06:26:17.786Z,997.33
2018-10-11T06:27:17.815Z,997.27
2018-10-11T06:28:17.824Z,997.24
2018-10-11T06:29:17.842Z,997.30
2018-10-11T06:30:17.946Z,997.31
2018-10-11T06:31:17.865Z,997.32
2018-10-11T06:32:17.885Z,997.30
2018-10-11T06:33:17.901Z,997.30
2018-10-11T06:34:17.914Z,997.37
2018-10-11T06:35:17.936Z,997.30
2018-10-11T06:36:17.967Z,997.30
2018-10-11T06:37:17.968Z,997.30
2018-10-11T06:38:17.992Z,997.29
2018-10-11T06:39:18.004Z,997.28
2018-10-11T06:40:18.018Z,997.44
2018-10-11T06:41:18.043Z,997.33
2018-10-11T06:42:18.170Z,997.43
2018-10-11T06:43:18.070Z,997.54
2018-10-11T06:44:18.093Z,997.53
2018-10-11T06:45:18.110Z,997.44
2018-10-11T06:46:18.129Z,997.48
2018-10-11T06:47:18.144Z,997.43
2018-10-11T06:48:18.196Z,997.46
2018-10-11T06:49:18.176Z,997.48
2018-10-11T06:50:18.254Z,997.51
2018-10-11T06:51:18.218Z,997.48
2018-10-11T06:52:18.237Z,997.60
2018-10-11T06:53:18.245Z,997.68
2018-10-11T06:54:18.269Z,997.65
2018-10-11T06:55:18.280Z,997.80
2018-10-11T06:56:18.301Z,997.75
2018-10-11T06:57:18.311Z,997.76
2018-10-11T06:58:18.338Z,997.91
2018-10-11T06:59:18.354Z,997.92
2018-10-11T07:00:18.370Z,997.98
2018-10-11T07:01:18.381Z,997.89
2018-10-11T07:02:18.406Z,997.96
2018-10-11T07:03:18.426Z,997.97
2018-10-11T07:04:18.439Z,998.01
2018-10-11T07:05:18.448Z,998.03
2018-10-11T07:06:18.506Z,998.04
2018-10-11T07:07:18.563Z,998.04
2018-10-11T07:08:18.525Z,998.09
2018-10-11T07:09:18.528Z,998.16
2018-10-11T07:10:18.542Z,998.22
2018-10-11T07:11:18.552Z,998.25
2018-10-11T07:12:18.576Z,998.20
2018-10-11T07:13:18.594Z,998.20
2018-10-11T07:14:18.609Z,998.22
2018-10-11T07:15:18.630Z,998.15
2018-10-11T07:16:18.646Z,998.15
2018-10-11T07:17:18.652Z,998.16
2018-10-11T07:18:18.685Z,998.20
2018-10-11T07:19:18.717Z,998.21
2018-10-11T07:20:18.711Z,998.16
2018-10-11T07:21:18.781Z,998.18
2018-10-11T07:22:18.745Z,998.25
2018-10-11T07:23:18.757Z,998.37
2018-10-11T07:24:18.786Z,998.39
2018-10-11T07:25:18.791Z,998.41
2018-10-11T07:26:18.818Z,998.47
2018-10-11T07:27:18.836Z,998.46
2018-10-11T07:28:18.849Z,998.50
2018-10-11T07:29:18.870Z,998.47
2018-10-11T07:30:18.880Z,998.48
2018-10-11T07:31:18.902Z,998.49
2018-10-11T07:32:18.910Z,998.47
2018-10-11T07:33:18.940Z,998.52
2018-10-11T07:34:18.954Z,998.55
2018-10-11T07:35:19.066Z,998.56
2018-10-11T07:36:18.990Z,998.61
2018-10-11T07:37:19.008Z,998.61
2018-10-11T07:38:19.011Z,998.65
2018-10-11T07:39:19.036Z,998.72
2018-10-11T07:40:19.101Z,998.73
2018-10-11T07:41:19.071Z,998.76
2018-10-11T07:42:19.135Z,998.78
2018-10-11T07:43:19.116Z,998.77
2018-10-11T07:44:19.129Z,998.81
2018-10-11T07:45:19.137Z,998.82
2018-10-11T07:46:19.159Z,998.82
2018-10-11T07:47:19.176Z,998.80
2018-10-11T07:48:19.187Z,998.80
2018-10-11T07:49:19.221Z,998.81
2018-10-11T07:50:19.226Z,998.82
2018-10-11T07:51:19.250Z,998.80
2018-10-11T07:52:19.260Z,998.84
2018-10-11T07:53:19.276Z,998.84
2018-10-11T07:54:19.301Z,998.88
2018-10-11T07:55:19.311Z,998.88
2018-10-11T07:56:19.328Z,998.92
2018-10-11T07:57:19.343Z,998.92
2018-10-11T07:58:19.370Z,999.00
2018-10-11T07:59:19.383Z,999.03
2018-10-11T08:00:19.402Z,999.06
2018-10-11T08:01:19.544Z,999.08
2018-10-11T08:02:19.428Z,999.09
2018-10-11T08:03:19.452Z,999.11
2018-10-11T08:04:19.470Z,999.03
2018-10-11T08:05:19.479Z,999.06
2018-10-11T08:06:19.524Z,999.06
2018-10-11T08:07:19.591Z,999.04
2018-10-11T08:08:19.535Z,999.07
2018-10-11T08:09:19.564Z,999.09
2018-10-11T08:10:19.631Z,999.11
2018-10-11T08:11:19.714Z,999.16
2018-10-11T08:12:19.611Z,999.19
2018-10-11T08:13:19.645Z,999.22
2018-10-11T08:14:19.640Z,999.23
2018-10-11T08:15:19.663Z,999.26
2018-10-11T08:16:19.731Z,999.25
2018-10-11T08:17:20.063Z,999.25
2018-10-11T08:18:19.710Z,999.27
2018-10-11T08:19:20.049Z,999.33
2018-10-11T08:20:19.771Z,999.36
2018-10-11T08:21:19.762Z,999.40
2018-10-11T08:22:19.787Z,999.40
2018-10-11T08:24:19.865Z,999.40
2018-10-11T08:25:20.169Z,999.41
2018-10-11T08:26:20.183Z,999.47
2018-10-11T08:27:19.960Z,999.48
2018-10-11T08:28:19.881Z,999.49
2018-10-11T08:29:19.900Z,999.55
2018-10-11T08:30:19.925Z,999.61
2018-10-11T08:31:19.957Z,999.57
2018-10-11T08:32:20.016Z,999.61
2018-10-11T08:33:19.976Z,999.61
2018-10-11T08:34:19.993Z,999.67
2018-10-11T08:35:20.006Z,999.68
2018-10-11T08:36:20.096Z,999.73
2018-10-11T08:37:20.056Z,999.74
2018-10-11T08:38:20.124Z,999.75
2018-10-11T08:39:20.099Z,999.76
2018-10-11T08:40:20.668Z,999.81
2018-10-11T08:41:20.140Z,999.81
2018-10-11T08:42:20.180Z,999.89
2018-10-11T08:43:20.225Z,999.88
2018-10-11T08:44:20.273Z,999.90
2018-10-11T08:45:20.207Z,999.93
2018-10-11T08:46:20.223Z,999.98
2018-10-11T08:47:20.246Z,1000.01
2018-10-11T08:48:20.275Z,999.99
2018-10-11T08:49:20.275Z,999.99
2018-10-11T08:50:20.324Z,1000.00
2018-10-11T08:51:20.317Z,1000.00
2018-10-11T08:52:20.327Z,999.96
2018-10-11T08:53:20.357Z,1000.06
2018-10-11T08:54:20.432Z,1000.07
2018-10-11T08:55:20.415Z,1000.12
2018-10-11T08:56:20.411Z,1000.12
2018-10-11T08:57:20.431Z,1000.14
2018-10-11T08:58:20.452Z,1000.17
2018-10-11T08:59:20.572Z,1000.19
2018-10-11T09:00:20.573Z,1000.23
2018-10-11T09:01:20.509Z,1000.21
2018-10-11T09:02:20.526Z,1000.22
2018-10-11T09:03:20.658Z,1000.21
2018-10-11T09:04:20.572Z,1000.26
2018-10-11T09:05:20.681Z,1000.22
2018-10-11T09:06:20.635Z,1000.24
2018-10-11T09:07:20.628Z,1000.27
2018-10-11T09:08:20.639Z,1000.23
2018-10-11T09:09:20.664Z,1000.21
2018-10-11T09:10:20.690Z,1000.20
2018-10-11T09:11:20.861Z,1000.23
2018-10-11T09:12:20.752Z,1000.16
2018-10-11T09:13:20.746Z,1000.28
2018-10-11T09:14:20.756Z,1000.23
2018-10-11T09:15:20.770Z,1000.14
2018-10-11T09:16:20.795Z,1000.30
2018-10-11T09:17:20.885Z,1000.30
2018-10-11T09:18:20.860Z,1000.27
2018-10-11T09:19:20.854Z,1000.31
2018-10-11T09:20:20.874Z,1000.32
2018-10-11T09:21:20.952Z,1000.34
2018-10-11T09:22:20.919Z,1000.37
2018-10-11T09:23:20.995Z,1000.32
2018-10-11T09:24:20.951Z,1000.32
2018-10-11T09:25:20.976Z,1000.33
2018-10-11T09:26:20.995Z,1000.35
2018-10-11T09:27:21.009Z,1000.40
2018-10-11T09:28:21.031Z,1000.41
2018-10-11T09:29:21.050Z,1000.41
2018-10-11T09:30:21.114Z,1000.41
2018-10-11T09:31:21.092Z,1000.43
2018-10-11T09:32:21.113Z,1000.39
2018-10-11T09:33:21.127Z,1000.43
2018-10-11T09:34:21.149Z,1000.46
2018-10-11T09:35:21.164Z,1000.52
2018-10-11T09:36:21.271Z,1000.46
2018-10-11T09:37:21.200Z,1000.51
2018-10-11T09:38:21.220Z,1000.47
2018-10-11T09:39:21.247Z,1000.53
2018-10-11T09:40:21.250Z,1000.51
2018-10-11T09:41:21.283Z,1000.50
2018-10-11T09:42:21.293Z,1000.49
2018-10-11T09:43:21.307Z,1000.46
2018-10-11T09:44:21.336Z,1000.58
2018-10-11T09:45:21.354Z,1000.61
2018-10-11T09:46:21.370Z,1000.64
2018-10-11T09:47:21.405Z,1000.64
2018-10-11T09:48:21.408Z,1000.63
2018-10-11T09:49:21.431Z,1000.63
2018-10-11T09:50:21.442Z,1000.66
2018-10-11T09:51:21.466Z,1000.65
2018-10-11T09:52:21.490Z,1000.73
2018-10-11T09:53:21.708Z,1000.74
2018-10-11T09:54:21.771Z,1000.78
2018-10-11T09:55:21.548Z,1000.76
2018-10-11T09:56:21.563Z,1000.75
2018-10-11T09:57:21.585Z,1000.72
2018-10-11T09:58:21.601Z,1000.71
2018-10-11T09:59:21.639Z,1000.72
2018-10-11T10:00:21.631Z,1000.75
2018-10-11T10:01:21.658Z,1000.73
2018-10-11T10:02:21.681Z,1000.75
2018-10-11T10:03:21.702Z,1000.76
2018-10-11T10:04:21.716Z,1000.76
2018-10-11T10:05:21.738Z,1000.76
2018-10-11T10:06:21.750Z,1000.83
2018-10-11T10:07:21.764Z,1000.88
2018-10-11T10:08:21.993Z,1000.94
2018-10-11T10:09:22.006Z,1000.95
2018-10-11T10:10:22.025Z,1000.94
2018-10-11T10:11:21.852Z,1000.93
2018-10-11T10:12:21.860Z,1000.93
2018-10-11T10:13:21.890Z,1000.94
2018-10-11T10:14:21.899Z,1000.92
2018-10-11T10:15:21.988Z,1000.95
2018-10-11T10:16:21.983Z,1000.96
2018-10-11T10:17:21.964Z,1000.98
2018-10-11T10:18:21.975Z,1000.95
2018-10-11T10:19:21.999Z,1000.96
2018-10-11T10:20:22.019Z,1000.94
2018-10-11T10:21:22.118Z,1000.96
2018-10-11T10:22:22.086Z,1001.00
2018-10-11T10:23:22.076Z,1001.05
2018-10-11T10:24:22.241Z,1001.05
2018-10-11T10:25:22.116Z,1001.06
2018-10-11T10:26:22.133Z,1001.10
2018-10-11T10:27:22.301Z,1001.09
2018-10-11T10:28:22.186Z,1001.14
2018-10-11T10:29:22.191Z,1001.20
2018-10-11T10:30:22.208Z,1001.23
2018-10-11T10:31:22.237Z,1001.25
2018-10-11T10:32:22.247Z,1001.30
2018-10-11T10:33:22.270Z,1001.35
2018-10-11T10:34:22.340Z,1001.34
2018-10-11T10:35:22.308Z,1001.37
2018-10-11T10:36:22.325Z,1001.36
2018-10-11T10:37:22.346Z,1001.29
2018-10-11T10:38:22.366Z,1001.31
2018-10-11T10:39:22.381Z,1001.30
2018-10-11T10:40:22.427Z,1001.29
2018-10-11T10:41:22.415Z,1001.26
2018-10-11T10:42:22.446Z,1001.28
2018-10-11T10:43:22.566Z,1001.25
2018-10-11T10:44:22.494Z,1001.32
2018-10-11T10:45:22.499Z,1001.29
2018-10-11T10:46:22.559Z,1001.37
2018-10-11T10:47:22.548Z,1001.40
2018-10-11T10:48:22.561Z,1001.42
2018-10-11T10:49:22.580Z,1001.45
2018-10-11T10:50:22.596Z,1001.42
2018-10-11T10:51:22.824Z,1001.41
2018-10-11T10:52:22.706Z,1001.41
2018-10-11T10:53:22.856Z,1001.41
2018-10-11T10:54:22.999Z,1001.45
2018-10-11T10:55:22.716Z,1001.45
2018-10-11T10:56:22.716Z,1001.49
2018-10-11T10:57:22.744Z,1001.51
2018-10-11T10:58:22.760Z,1001.52
2018-10-11T10:59:22.778Z,1001.56
2018-10-11T11:00:22.794Z,1001.56
2018-10-11T11:01:22.818Z,1001.58
2018-10-11T11:02:22.839Z,1001.63
2018-10-11T11:03:22.882Z,1001.61
2018-10-11T11:04:22.880Z,1001.66
2018-10-11T11:05:22.923Z,1001.64
2018-10-11T11:06:22.919Z,1001.67
2018-10-11T11:07:23.003Z,1001.68
2018-10-11T11:08:22.993Z,1001.66
2018-10-11T11:09:22.979Z,1001.64
2018-10-11T11:10:23.000Z,1001.61
2018-10-11T11:11:23.019Z,1001.58
2018-10-11T11:12:23.037Z,1001.59
2018-10-11T11:13:23.060Z,1001.60
2018-10-11T11:14:23.081Z,1001.60
2018-10-11T11:15:23.096Z,1001.59
2018-10-11T11:16:23.122Z,1001.68
2018-10-11T11:17:23.140Z,1001.64
2018-10-11T11:18:23.159Z,1001.65
2018-10-11T11:19:23.185Z,1001.65
2018-10-11T11:20:23.199Z,1001.62
2018-10-11T11:21:23.215Z,1001.55
2018-10-11T11:22:23.240Z,1001.62
2018-10-11T11:23:23.255Z,1001.59
2018-10-11T11:24:23.273Z,1001.62
2018-10-11T11:25:23.370Z,1001.60
2018-10-11T11:26:23.316Z,1001.53
2018-10-11T11:27:23.333Z,1001.48
2018-10-11T11:28:23.356Z,1001.52
2018-10-11T11:29:23.364Z,1001.53
2018-10-11T11:30:23.396Z,1001.54
2018-10-11T11:31:23.420Z,1001.55
2018-10-11T11:32:23.438Z,1001.46
2018-10-11T11:33:23.453Z,1001.50
2018-10-11T11:34:23.475Z,1001.47
2018-10-11T11:35:23.486Z,1001.50
2018-10-11T11:36:23.534Z,1001.51
2018-10-11T11:37:23.529Z,1001.48
2018-10-11T11:38:23.567Z,1001.49
2018-10-11T11:39:23.573Z,1001.47
2018-10-11T11:40:23.595Z,1001.47
2018-10-11T11:41:23.609Z,1001.45
2018-10-11T11:42:23.632Z,1001.51
2018-10-11T11:43:23.655Z,1001.50
2018-10-11T11:44:23.669Z,1001.47
2018-10-11T11:45:23.699Z,1001.45
2018-10-11T11:46:23.719Z,1001.41
2018-10-11T11:47:23.736Z,1001.42
2018-10-11T11:48:23.772Z,1001.47
2018-10-11T11:49:23.777Z,1001.39
2018-10-11T11:50:23.845Z,1001.36
2018-10-11T11:51:23.821Z,1001.37
2018-10-11T11:52:23.839Z,1001.34
2018-10-11T11:53:23.857Z,1001.34
2018-10-11T11:54:23.890Z,1001.34
2018-10-11T11:55:23.902Z,1001.33
2018-10-11T11:56:23.927Z,1001.41
2018-10-11T11:57:23.945Z,1001.44
2018-10-11T11:58:23.961Z,1001.48
2018-10-11T11:59:23.992Z,1001.50
2018-10-11T12:00:24.008Z,1001.54
2018-10-11T12:01:24.064Z,1001.53
2018-10-11T12:02:24.051Z,1001.56
2018-10-11T12:03:24.063Z,1001.60
2018-10-11T12:04:24.086Z,1001.64
2018-10-11T12:05:24.107Z,1001.67
2018-10-11T12:06:24.125Z,1001.63
2018-10-11T12:07:24.143Z,1001.69
2018-10-11T12:08:24.169Z,1001.79
2018-10-11T12:09:24.185Z,1001.78
2018-10-11T12:10:24.230Z,1001.79
2018-10-11T12:11:24.238Z,1001.83
2018-10-11T12:12:24.244Z,1001.80
2018-10-11T12:13:24.270Z,1001.86
2018-10-11T12:14:24.288Z,1001.81
2018-10-11T12:15:24.312Z,1001.84
2018-10-11T12:16:24.334Z,1001.92
2018-10-11T12:17:24.341Z,1001.88
2018-10-11T12:18:24.359Z,1001.93
2018-10-11T12:19:24.399Z,1001.96
2018-10-11T12:20:24.411Z,1002.00
2018-10-11T12:21:24.429Z,1002.00
2018-10-11T12:22:24.442Z,1002.05